sensor_id;sensor_type;location;lat;lon;timestamp;P1;durP1;ratioP1;P2;durP2;ratioP2
4464;SDS011;2245;48.136;13.428;2024-02-16T00:00:24;7.80;;;5.67;;
4464;SDS011;2245;48.136;13.428;2024-02-16T00:02:51;13.00;;;6.90;;
4464;SDS011;2245;48.136;13.428;2024-02-16T00:05:18;10.10;;;5.63;;
4464;SDS011;2245;48.136;13.428;2024-02-16T00:07:45;9.50;;;5.87;;
4464;SDS011;2245;48.136;13.428;2024-02-16T00:10:13;9.13;;;5.77;;
4464;SDS011;2245;48.136;13.428;2024-02-16T00:12:43;6.30;;;5.17;;
4464;SDS011;2245;48.136;13.428;2024-02-16T00:15:10;7.10;;;5.70;;
4464;SDS011;2245;48.136;13.428;2024-02-16T00:17:37;10.57;;;6.67;;
4464;SDS011;2245;48.136;13.428;2024-02-16T00:20:05;11.73;;;6.70;;
4464;SDS011;2245;48.136;13.428;2024-02-16T00:22:33;7.90;;;6.30;;
4464;SDS011;2245;48.136;13.428;2024-02-16T00:25:00;7.20;;;5.70;;
4464;SDS011;2245;48.136;13.428;2024-02-16T00:27:30;8.40;;;6.63;;
4464;SDS011;2245;48.136;13.428;2024-02-16T00:29:57;7.87;;;5.40;;
4464;SDS011;2245;48.136;13.428;2024-02-16T00:32:23;13.23;;;7.80;;
4464;SDS011;2245;48.136;13.428;2024-02-16T00:34:55;10.47;;;6.27;;
4464;SDS011;2245;48.136;13.428;2024-02-16T00:37:23;9.90;;;6.80;;
4464;SDS011;2245;48.136;13.428;2024-02-16T00:39:50;8.70;;;6.20;;
4464;SDS011;2245;48.136;13.428;2024-02-16T00:42:19;7.90;;;5.80;;
4464;SDS011;2245;48.136;13.428;2024-02-16T00:44:48;6.53;;;5.40;;
4464;SDS011;2245;48.136;13.428;2024-02-16T00:47:15;10.30;;;6.17;;
4464;SDS011;2245;48.136;13.428;2024-02-16T00:49:42;8.13;;;6.40;;
4464;SDS011;2245;48.136;13.428;2024-02-16T00:52:09;10.43;;;7.93;;
4464;SDS011;2245;48.136;13.428;2024-02-16T00:54:36;10.80;;;6.90;;
4464;SDS011;2245;48.136;13.428;2024-02-16T00:57:03;11.97;;;6.50;;
4464;SDS011;2245;48.136;13.428;2024-02-16T00:59:31;15.80;;;8.47;;
4464;SDS011;2245;48.136;13.428;2024-02-16T01:01:59;11.17;;;7.30;;
4464;SDS011;2245;48.136;13.428;2024-02-16T01:04:26;8.40;;;6.00;;
4464;SDS011;2245;48.136;13.428;2024-02-16T01:06:53;10.70;;;6.67;;
4464;SDS011;2245;48.136;13.428;2024-02-16T01:09:20;9.27;;;6.60;;
4464;SDS011;2245;48.136;13.428;2024-02-16T01:11:46;13.20;;;5.80;;
4464;SDS011;2245;48.136;13.428;2024-02-16T01:14:14;9.17;;;6.50;;
4464;SDS011;2245;48.136;13.428;2024-02-16T01:16:41;9.90;;;7.40;;
4464;SDS011;2245;48.136;13.428;2024-02-16T01:19:10;18.63;;;7.17;;
4464;SDS011;2245;48.136;13.428;2024-02-16T01:21:37;12.03;;;6.93;;
4464;SDS011;2245;48.136;13.428;2024-02-16T01:24:04;12.10;;;8.27;;
4464;SDS011;2245;48.136;13.428;2024-02-16T01:26:31;11.50;;;6.40;;
4464;SDS011;2245;48.136;13.428;2024-02-16T01:28:58;13.40;;;7.47;;
4464;SDS011;2245;48.136;13.428;2024-02-16T01:31:27;10.90;;;7.20;;
4464;SDS011;2245;48.136;13.428;2024-02-16T01:33:54;9.07;;;6.80;;
4464;SDS011;2245;48.136;13.428;2024-02-16T01:36:22;13.33;;;7.23;;
4464;SDS011;2245;48.136;13.428;2024-02-16T01:38:49;8.67;;;6.03;;
4464;SDS011;2245;48.136;13.428;2024-02-16T01:41:16;13.47;;;8.37;;
4464;SDS011;2245;48.136;13.428;2024-02-16T01:43:43;9.10;;;6.53;;
4464;SDS011;2245;48.136;13.428;2024-02-16T01:46:10;7.20;;;6.27;;
4464;SDS011;2245;48.136;13.428;2024-02-16T01:48:37;9.90;;;6.80;;
4464;SDS011;2245;48.136;13.428;2024-02-16T01:51:05;7.43;;;5.90;;
4464;SDS011;2245;48.136;13.428;2024-02-16T01:53:34;8.57;;;6.30;;
4464;SDS011;2245;48.136;13.428;2024-02-16T01:56:02;12.03;;;7.50;;
4464;SDS011;2245;48.136;13.428;2024-02-16T01:58:30;11.67;;;6.97;;
4464;SDS011;2245;48.136;13.428;2024-02-16T02:00:57;12.73;;;7.17;;
4464;SDS011;2245;48.136;13.428;2024-02-16T02:03:23;12.87;;;6.43;;
4464;SDS011;2245;48.136;13.428;2024-02-16T02:05:51;10.73;;;6.27;;
4464;SDS011;2245;48.136;13.428;2024-02-16T02:08:19;9.30;;;6.57;;
4464;SDS011;2245;48.136;13.428;2024-02-16T02:10:48;9.00;;;6.60;;
4464;SDS011;2245;48.136;13.428;2024-02-16T02:13:15;10.23;;;7.40;;
4464;SDS011;2245;48.136;13.428;2024-02-16T02:15:45;8.63;;;5.50;;
4464;SDS011;2245;48.136;13.428;2024-02-16T02:18:12;8.90;;;6.00;;
4464;SDS011;2245;48.136;13.428;2024-02-16T02:20:39;14.70;;;6.40;;
4464;SDS011;2245;48.136;13.428;2024-02-16T02:23:07;10.50;;;6.70;;
4464;SDS011;2245;48.136;13.428;2024-02-16T02:25:34;12.80;;;7.80;;
4464;SDS011;2245;48.136;13.428;2024-02-16T02:28:01;8.50;;;5.90;;
4464;SDS011;2245;48.136;13.428;2024-02-16T02:30:29;7.50;;;6.33;;
4464;SDS011;2245;48.136;13.428;2024-02-16T02:32:56;8.40;;;6.43;;
4464;SDS011;2245;48.136;13.428;2024-02-16T02:35:23;8.77;;;6.30;;
4464;SDS011;2245;48.136;13.428;2024-02-16T02:37:49;8.20;;;5.90;;
4464;SDS011;2245;48.136;13.428;2024-02-16T02:40:18;10.63;;;7.30;;
4464;SDS011;2245;48.136;13.428;2024-02-16T02:42:45;9.70;;;6.07;;
4464;SDS011;2245;48.136;13.428;2024-02-16T02:45:12;7.60;;;5.50;;
4464;SDS011;2245;48.136;13.428;2024-02-16T02:47:39;10.23;;;6.20;;
4464;SDS011;2245;48.136;13.428;2024-02-16T02:50:06;10.10;;;7.27;;
4464;SDS011;2245;48.136;13.428;2024-02-16T02:52:34;8.10;;;5.50;;
4464;SDS011;2245;48.136;13.428;2024-02-16T02:55:01;11.73;;;6.50;;
4464;SDS011;2245;48.136;13.428;2024-02-16T02:57:29;7.27;;;5.47;;
4464;SDS011;2245;48.136;13.428;2024-02-16T03:00:02;8.20;;;6.00;;
4464;SDS011;2245;48.136;13.428;2024-02-16T03:02:31;7.00;;;5.80;;
4464;SDS011;2245;48.136;13.428;2024-02-16T03:04:58;8.37;;;5.03;;
4464;SDS011;2245;48.136;13.428;2024-02-16T03:07:25;13.73;;;6.87;;
4464;SDS011;2245;48.136;13.428;2024-02-16T03:09:52;10.40;;;6.70;;
4464;SDS011;2245;48.136;13.428;2024-02-16T03:12:19;8.57;;;6.53;;
4464;SDS011;2245;48.136;13.428;2024-02-16T03:14:48;8.00;;;6.57;;
4464;SDS011;2245;48.136;13.428;2024-02-16T03:17:15;11.10;;;6.80;;
4464;SDS011;2245;48.136;13.428;2024-02-16T03:19:42;14.37;;;8.80;;
4464;SDS011;2245;48.136;13.428;2024-02-16T03:22:09;12.30;;;6.87;;
4464;SDS011;2245;48.136;13.428;2024-02-16T03:24:36;9.50;;;6.00;;
4464;SDS011;2245;48.136;13.428;2024-02-16T03:27:03;7.80;;;6.03;;
4464;SDS011;2245;48.136;13.428;2024-02-16T03:29:30;11.73;;;6.60;;
4464;SDS011;2245;48.136;13.428;2024-02-16T03:31:59;9.97;;;6.67;;
4464;SDS011;2245;48.136;13.428;2024-02-16T03:34:26;10.97;;;7.50;;
4464;SDS011;2245;48.136;13.428;2024-02-16T03:36:53;9.60;;;5.93;;
4464;SDS011;2245;48.136;13.428;2024-02-16T03:39:20;9.57;;;7.00;;
4464;SDS011;2245;48.136;13.428;2024-02-16T03:41:47;9.10;;;6.30;;
4464;SDS011;2245;48.136;13.428;2024-02-16T03:44:14;11.33;;;7.73;;
4464;SDS011;2245;48.136;13.428;2024-02-16T03:46:41;11.00;;;6.60;;
4464;SDS011;2245;48.136;13.428;2024-02-16T03:49:10;7.40;;;6.33;;
4464;SDS011;2245;48.136;13.428;2024-02-16T03:51:37;10.13;;;7.60;;
4464;SDS011;2245;48.136;13.428;2024-02-16T03:54:04;12.30;;;7.73;;
4464;SDS011;2245;48.136;13.428;2024-02-16T03:56:30;9.17;;;6.53;;
4464;SDS011;2245;48.136;13.428;2024-02-16T03:58:57;12.83;;;6.83;;
4464;SDS011;2245;48.136;13.428;2024-02-16T04:01:24;14.57;;;6.90;;
4464;SDS011;2245;48.136;13.428;2024-02-16T04:03:51;11.40;;;8.00;;
4464;SDS011;2245;48.136;13.428;2024-02-16T04:06:20;11.83;;;7.73;;
4464;SDS011;2245;48.136;13.428;2024-02-16T04:08:47;12.47;;;7.67;;
4464;SDS011;2245;48.136;13.428;2024-02-16T04:11:14;13.07;;;8.00;;
4464;SDS011;2245;48.136;13.428;2024-02-16T04:13:42;14.63;;;7.77;;
4464;SDS011;2245;48.136;13.428;2024-02-16T04:16:09;9.90;;;7.10;;
4464;SDS011;2245;48.136;13.428;2024-02-16T04:18:36;9.87;;;7.57;;
4464;SDS011;2245;48.136;13.428;2024-02-16T04:21:03;13.23;;;8.83;;
4464;SDS011;2245;48.136;13.428;2024-02-16T04:23:32;14.40;;;9.23;;
4464;SDS011;2245;48.136;13.428;2024-02-16T04:25:59;13.33;;;8.87;;
4464;SDS011;2245;48.136;13.428;2024-02-16T04:28:25;11.10;;;8.20;;
4464;SDS011;2245;48.136;13.428;2024-02-16T04:30:52;13.00;;;8.63;;
4464;SDS011;2245;48.136;13.428;2024-02-16T04:33:19;15.93;;;10.17;;
4464;SDS011;2245;48.136;13.428;2024-02-16T04:35:46;14.10;;;8.60;;
4464;SDS011;2245;48.136;13.428;2024-02-16T04:38:15;11.30;;;8.17;;
4464;SDS011;2245;48.136;13.428;2024-02-16T04:40:44;8.80;;;7.90;;
4464;SDS011;2245;48.136;13.428;2024-02-16T04:43:11;12.10;;;6.87;;
4464;SDS011;2245;48.136;13.428;2024-02-16T04:45:38;9.50;;;7.23;;
4464;SDS011;2245;48.136;13.428;2024-02-16T04:48:05;8.63;;;6.50;;
4464;SDS011;2245;48.136;13.428;2024-02-16T04:50:34;9.00;;;7.00;;
4464;SDS011;2245;48.136;13.428;2024-02-16T04:53:01;12.37;;;9.00;;
4464;SDS011;2245;48.136;13.428;2024-02-16T04:55:28;12.60;;;8.60;;
4464;SDS011;2245;48.136;13.428;2024-02-16T04:57:57;12.00;;;7.93;;
4464;SDS011;2245;48.136;13.428;2024-02-16T05:00:24;10.37;;;7.50;;
4464;SDS011;2245;48.136;13.428;2024-02-16T05:02:52;9.20;;;6.97;;
4464;SDS011;2245;48.136;13.428;2024-02-16T05:05:19;14.47;;;9.20;;
4464;SDS011;2245;48.136;13.428;2024-02-16T05:07:48;10.17;;;6.83;;
4464;SDS011;2245;48.136;13.428;2024-02-16T05:10:16;10.67;;;6.83;;
4464;SDS011;2245;48.136;13.428;2024-02-16T05:12:44;14.00;;;8.33;;
4464;SDS011;2245;48.136;13.428;2024-02-16T05:15:13;8.90;;;7.20;;
4464;SDS011;2245;48.136;13.428;2024-02-16T05:17:40;11.83;;;8.40;;
4464;SDS011;2245;48.136;13.428;2024-02-16T05:20:09;13.67;;;7.90;;
4464;SDS011;2245;48.136;13.428;2024-02-16T05:22:40;10.63;;;7.77;;
4464;SDS011;2245;48.136;13.428;2024-02-16T05:25:08;9.70;;;7.23;;
4464;SDS011;2245;48.136;13.428;2024-02-16T05:27:36;13.67;;;7.87;;
4464;SDS011;2245;48.136;13.428;2024-02-16T05:30:03;21.20;;;13.57;;
4464;SDS011;2245;48.136;13.428;2024-02-16T05:32:35;10.20;;;7.77;;
4464;SDS011;2245;48.136;13.428;2024-02-16T05:35:02;10.87;;;7.87;;
4464;SDS011;2245;48.136;13.428;2024-02-16T05:37:37;11.50;;;7.83;;
4464;SDS011;2245;48.136;13.428;2024-02-16T05:40:07;14.23;;;6.30;;
4464;SDS011;2245;48.136;13.428;2024-02-16T05:42:45;10.30;;;6.50;;
4464;SDS011;2245;48.136;13.428;2024-02-16T05:45:12;11.43;;;7.33;;
4464;SDS011;2245;48.136;13.428;2024-02-16T05:47:41;9.63;;;7.63;;
4464;SDS011;2245;48.136;13.428;2024-02-16T05:50:10;15.83;;;7.13;;
4464;SDS011;2245;48.136;13.428;2024-02-16T05:52:37;19.47;;;8.63;;
4464;SDS011;2245;48.136;13.428;2024-02-16T05:55:04;17.13;;;8.33;;
4464;SDS011;2245;48.136;13.428;2024-02-16T05:57:32;13.17;;;8.60;;
4464;SDS011;2245;48.136;13.428;2024-02-16T05:59:59;10.03;;;6.30;;
4464;SDS011;2245;48.136;13.428;2024-02-16T06:02:27;14.10;;;9.47;;
4464;SDS011;2245;48.136;13.428;2024-02-16T06:04:56;26.43;;;16.10;;
4464;SDS011;2245;48.136;13.428;2024-02-16T06:07:23;24.00;;;15.20;;
4464;SDS011;2245;48.136;13.428;2024-02-16T06:09:50;11.87;;;8.87;;
4464;SDS011;2245;48.136;13.428;2024-02-16T06:12:19;15.40;;;9.17;;
4464;SDS011;2245;48.136;13.428;2024-02-16T06:14:46;15.83;;;7.20;;
4464;SDS011;2245;48.136;13.428;2024-02-16T06:17:13;20.00;;;7.87;;
4464;SDS011;2245;48.136;13.428;2024-02-16T06:19:41;12.33;;;7.27;;
4464;SDS011;2245;48.136;13.428;2024-02-16T06:22:09;13.13;;;8.00;;
4464;SDS011;2245;48.136;13.428;2024-02-16T06:24:37;14.43;;;8.20;;
4464;SDS011;2245;48.136;13.428;2024-02-16T06:27:04;22.03;;;7.37;;
4464;SDS011;2245;48.136;13.428;2024-02-16T06:29:31;11.37;;;7.50;;
4464;SDS011;2245;48.136;13.428;2024-02-16T06:31:57;17.93;;;9.40;;
4464;SDS011;2245;48.136;13.428;2024-02-16T06:34:24;14.60;;;7.53;;
4464;SDS011;2245;48.136;13.428;2024-02-16T06:36:51;12.20;;;7.57;;
4464;SDS011;2245;48.136;13.428;2024-02-16T06:39:20;14.53;;;8.80;;
4464;SDS011;2245;48.136;13.428;2024-02-16T06:41:47;14.97;;;8.70;;
4464;SDS011;2245;48.136;13.428;2024-02-16T06:44:14;14.33;;;8.23;;
4464;SDS011;2245;48.136;13.428;2024-02-16T06:46:42;11.77;;;8.03;;
4464;SDS011;2245;48.136;13.428;2024-02-16T06:49:09;14.57;;;7.80;;
4464;SDS011;2245;48.136;13.428;2024-02-16T06:51:36;17.97;;;8.27;;
4464;SDS011;2245;48.136;13.428;2024-02-16T06:54:03;11.27;;;7.03;;
4464;SDS011;2245;48.136;13.428;2024-02-16T06:56:32;29.83;;;8.47;;
4464;SDS011;2245;48.136;13.428;2024-02-16T06:58:59;11.30;;;7.13;;
4464;SDS011;2245;48.136;13.428;2024-02-16T07:01:26;11.30;;;7.10;;
4464;SDS011;2245;48.136;13.428;2024-02-16T07:03:54;13.57;;;9.57;;
4464;SDS011;2245;48.136;13.428;2024-02-16T07:06:21;16.47;;;11.23;;
4464;SDS011;2245;48.136;13.428;2024-02-16T07:08:48;21.13;;;10.90;;
4464;SDS011;2245;48.136;13.428;2024-02-16T07:11:15;13.47;;;8.63;;
4464;SDS011;2245;48.136;13.428;2024-02-16T07:13:43;9.07;;;7.53;;
4464;SDS011;2245;48.136;13.428;2024-02-16T07:16:10;16.00;;;9.90;;
4464;SDS011;2245;48.136;13.428;2024-02-16T07:18:37;12.07;;;7.67;;
4464;SDS011;2245;48.136;13.428;2024-02-16T07:21:04;13.80;;;9.20;;
4464;SDS011;2245;48.136;13.428;2024-02-16T07:23:31;11.90;;;8.17;;
4464;SDS011;2245;48.136;13.428;2024-02-16T07:25:58;21.87;;;11.73;;
4464;SDS011;2245;48.136;13.428;2024-02-16T07:28:27;12.03;;;8.70;;
4464;SDS011;2245;48.136;13.428;2024-02-16T07:30:55;18.77;;;11.53;;
4464;SDS011;2245;48.136;13.428;2024-02-16T07:33:22;12.17;;;9.97;;
4464;SDS011;2245;48.136;13.428;2024-02-16T07:35:49;16.17;;;9.60;;
4464;SDS011;2245;48.136;13.428;2024-02-16T07:38:17;16.13;;;8.43;;
4464;SDS011;2245;48.136;13.428;2024-02-16T07:40:44;12.60;;;9.63;;
4464;SDS011;2245;48.136;13.428;2024-02-16T07:43:11;13.83;;;9.13;;
4464;SDS011;2245;48.136;13.428;2024-02-16T07:45:38;13.37;;;7.43;;
4464;SDS011;2245;48.136;13.428;2024-02-16T07:48:07;11.87;;;8.87;;
4464;SDS011;2245;48.136;13.428;2024-02-16T07:50:34;13.80;;;8.00;;
4464;SDS011;2245;48.136;13.428;2024-02-16T07:53:00;10.43;;;6.97;;
4464;SDS011;2245;48.136;13.428;2024-02-16T07:55:27;9.53;;;7.50;;
4464;SDS011;2245;48.136;13.428;2024-02-16T07:57:54;8.70;;;6.33;;
4464;SDS011;2245;48.136;13.428;2024-02-16T08:00:21;9.83;;;5.90;;
4464;SDS011;2245;48.136;13.428;2024-02-16T08:02:48;9.10;;;7.07;;
4464;SDS011;2245;48.136;13.428;2024-02-16T08:05:17;9.73;;;6.27;;
4464;SDS011;2245;48.136;13.428;2024-02-16T08:07:44;9.23;;;6.27;;
4464;SDS011;2245;48.136;13.428;2024-02-16T08:10:12;8.17;;;6.70;;
4464;SDS011;2245;48.136;13.428;2024-02-16T08:12:39;9.10;;;6.83;;
4464;SDS011;2245;48.136;13.428;2024-02-16T08:15:06;10.13;;;6.07;;
4464;SDS011;2245;48.136;13.428;2024-02-16T08:17:34;7.70;;;6.17;;
4464;SDS011;2245;48.136;13.428;2024-02-16T08:20:01;17.03;;;7.00;;
4464;SDS011;2245;48.136;13.428;2024-02-16T08:22:30;8.80;;;6.30;;
4464;SDS011;2245;48.136;13.428;2024-02-16T08:24:57;12.07;;;7.97;;
4464;SDS011;2245;48.136;13.428;2024-02-16T08:27:24;16.47;;;9.23;;
4464;SDS011;2245;48.136;13.428;2024-02-16T08:29:51;10.40;;;7.40;;
4464;SDS011;2245;48.136;13.428;2024-02-16T08:32:18;8.40;;;7.33;;
4464;SDS011;2245;48.136;13.428;2024-02-16T08:34:46;15.33;;;7.47;;
4464;SDS011;2245;48.136;13.428;2024-02-16T08:37:15;10.40;;;8.80;;
4464;SDS011;2245;48.136;13.428;2024-02-16T08:39:44;19.47;;;6.07;;
4464;SDS011;2245;48.136;13.428;2024-02-16T08:42:11;6.83;;;5.10;;
4464;SDS011;2245;48.136;13.428;2024-02-16T08:44:38;9.10;;;4.57;;
4464;SDS011;2245;48.136;13.428;2024-02-16T08:47:05;7.60;;;4.03;;
4464;SDS011;2245;48.136;13.428;2024-02-16T08:49:32;6.27;;;4.90;;
4464;SDS011;2245;48.136;13.428;2024-02-16T08:51:59;8.03;;;5.73;;
4464;SDS011;2245;48.136;13.428;2024-02-16T08:54:26;12.10;;;5.90;;
4464;SDS011;2245;48.136;13.428;2024-02-16T08:56:54;9.13;;;4.83;;
4464;SDS011;2245;48.136;13.428;2024-02-16T08:59:22;6.87;;;4.77;;
4464;SDS011;2245;48.136;13.428;2024-02-16T09:01:49;5.30;;;3.67;;
4464;SDS011;2245;48.136;13.428;2024-02-16T09:04:16;4.60;;;4.00;;
4464;SDS011;2245;48.136;13.428;2024-02-16T09:06:43;4.43;;;3.53;;
4464;SDS011;2245;48.136;13.428;2024-02-16T09:09:10;4.73;;;3.20;;
4464;SDS011;2245;48.136;13.428;2024-02-16T09:11:37;9.80;;;3.47;;
4464;SDS011;2245;48.136;13.428;2024-02-16T09:14:05;4.40;;;4.00;;
4464;SDS011;2245;48.136;13.428;2024-02-16T09:16:33;8.67;;;4.73;;
4464;SDS011;2245;48.136;13.428;2024-02-16T09:19:00;9.17;;;3.80;;
4464;SDS011;2245;48.136;13.428;2024-02-16T09:21:27;3.60;;;3.10;;
4464;SDS011;2245;48.136;13.428;2024-02-16T09:23:55;3.47;;;2.77;;
4464;SDS011;2245;48.136;13.428;2024-02-16T09:26:26;2.97;;;2.67;;
4464;SDS011;2245;48.136;13.428;2024-02-16T09:28:55;4.40;;;2.93;;
4464;SDS011;2245;48.136;13.428;2024-02-16T09:31:24;8.33;;;3.90;;
4464;SDS011;2245;48.136;13.428;2024-02-16T09:33:51;4.53;;;3.60;;
4464;SDS011;2245;48.136;13.428;2024-02-16T09:36:19;4.77;;;4.00;;
4464;SDS011;2245;48.136;13.428;2024-02-16T09:38:45;16.93;;;9.90;;
4464;SDS011;2245;48.136;13.428;2024-02-16T09:41:12;29.50;;;11.47;;
4464;SDS011;2245;48.136;13.428;2024-02-16T09:43:41;6.20;;;4.43;;
4464;SDS011;2245;48.136;13.428;2024-02-16T09:46:08;8.10;;;3.70;;
4464;SDS011;2245;48.136;13.428;2024-02-16T09:48:36;5.10;;;3.63;;
4464;SDS011;2245;48.136;13.428;2024-02-16T09:51:06;6.50;;;3.90;;
4464;SDS011;2245;48.136;13.428;2024-02-16T09:53:33;13.60;;;4.10;;
4464;SDS011;2245;48.136;13.428;2024-02-16T09:56:00;5.13;;;3.23;;
4464;SDS011;2245;48.136;13.428;2024-02-16T09:58:28;3.93;;;3.53;;
4464;SDS011;2245;48.136;13.428;2024-02-16T10:00:55;7.57;;;3.30;;
4464;SDS011;2245;48.136;13.428;2024-02-16T10:03:25;6.10;;;3.50;;
4464;SDS011;2245;48.136;13.428;2024-02-16T10:06:04;3.17;;;2.80;;
4464;SDS011;2245;48.136;13.428;2024-02-16T10:08:32;4.73;;;3.17;;
4464;SDS011;2245;48.136;13.428;2024-02-16T10:11:02;7.83;;;3.40;;
4464;SDS011;2245;48.136;13.428;2024-02-16T10:13:30;4.60;;;3.30;;
4464;SDS011;2245;48.136;13.428;2024-02-16T10:16:04;4.33;;;3.10;;
4464;SDS011;2245;48.136;13.428;2024-02-16T10:18:33;7.43;;;3.97;;
4464;SDS011;2245;48.136;13.428;2024-02-16T10:21:01;4.43;;;3.43;;
4464;SDS011;2245;48.136;13.428;2024-02-16T10:23:30;5.20;;;3.50;;
4464;SDS011;2245;48.136;13.428;2024-02-16T10:25:57;14.50;;;3.70;;
4464;SDS011;2245;48.136;13.428;2024-02-16T10:28:27;4.67;;;3.93;;
4464;SDS011;2245;48.136;13.428;2024-02-16T10:30:56;20.17;;;6.23;;
4464;SDS011;2245;48.136;13.428;2024-02-16T10:33:26;8.57;;;3.57;;
4464;SDS011;2245;48.136;13.428;2024-02-16T10:35:55;4.57;;;4.10;;
4464;SDS011;2245;48.136;13.428;2024-02-16T10:38:24;7.90;;;4.00;;
4464;SDS011;2245;48.136;13.428;2024-02-16T10:40:53;12.33;;;4.30;;
4464;SDS011;2245;48.136;13.428;2024-02-16T10:43:22;6.17;;;4.87;;
4464;SDS011;2245;48.136;13.428;2024-02-16T10:45:51;9.73;;;5.00;;
4464;SDS011;2245;48.136;13.428;2024-02-16T10:48:18;8.20;;;5.60;;
4464;SDS011;2245;48.136;13.428;2024-02-16T10:50:45;10.63;;;5.60;;
4464;SDS011;2245;48.136;13.428;2024-02-16T10:53:17;10.63;;;6.83;;
4464;SDS011;2245;48.136;13.428;2024-02-16T10:55:48;6.97;;;5.97;;
4464;SDS011;2245;48.136;13.428;2024-02-16T10:58:17;9.83;;;6.60;;
4464;SDS011;2245;48.136;13.428;2024-02-16T11:00:51;7.93;;;6.63;;
4464;SDS011;2245;48.136;13.428;2024-02-16T11:03:21;13.00;;;7.73;;
4464;SDS011;2245;48.136;13.428;2024-02-16T11:05:50;10.93;;;7.33;;
4464;SDS011;2245;48.136;13.428;2024-02-16T11:08:18;10.00;;;8.20;;
4464;SDS011;2245;48.136;13.428;2024-02-16T11:10:54;10.27;;;6.70;;
4464;SDS011;2245;48.136;13.428;2024-02-16T11:13:24;63.40;;;35.87;;
4464;SDS011;2245;48.136;13.428;2024-02-16T11:15:57;12.00;;;9.33;;
4464;SDS011;2245;48.136;13.428;2024-02-16T11:18:26;14.37;;;7.37;;
4464;SDS011;2245;48.136;13.428;2024-02-16T11:20:53;10.37;;;7.10;;
4464;SDS011;2245;48.136;13.428;2024-02-16T11:23:24;8.80;;;6.37;;
4464;SDS011;2245;48.136;13.428;2024-02-16T11:25:53;10.23;;;6.77;;
4464;SDS011;2245;48.136;13.428;2024-02-16T11:28:20;22.50;;;9.10;;
4464;SDS011;2245;48.136;13.428;2024-02-16T11:30:48;16.70;;;11.57;;
4464;SDS011;2245;48.136;13.428;2024-02-16T11:33:17;14.53;;;11.70;;
4464;SDS011;2245;48.136;13.428;2024-02-16T11:35:52;15.87;;;12.07;;
4464;SDS011;2245;48.136;13.428;2024-02-16T11:38:19;15.73;;;11.10;;
4464;SDS011;2245;48.136;13.428;2024-02-16T11:40:52;14.27;;;11.17;;
4464;SDS011;2245;48.136;13.428;2024-02-16T11:43:20;13.60;;;11.30;;
4464;SDS011;2245;48.136;13.428;2024-02-16T11:45:51;15.20;;;11.40;;
4464;SDS011;2245;48.136;13.428;2024-02-16T11:48:21;15.27;;;10.63;;
4464;SDS011;2245;48.136;13.428;2024-02-16T11:50:48;14.17;;;10.60;;
4464;SDS011;2245;48.136;13.428;2024-02-16T11:53:16;15.10;;;10.50;;
4464;SDS011;2245;48.136;13.428;2024-02-16T11:55:47;19.93;;;13.60;;
4464;SDS011;2245;48.136;13.428;2024-02-16T11:58:15;21.33;;;11.93;;
4464;SDS011;2245;48.136;13.428;2024-02-16T12:00:43;15.87;;;10.60;;
4464;SDS011;2245;48.136;13.428;2024-02-16T12:03:11;22.33;;;10.13;;
4464;SDS011;2245;48.136;13.428;2024-02-16T12:05:38;13.97;;;11.10;;
4464;SDS011;2245;48.136;13.428;2024-02-16T12:08:05;17.60;;;13.20;;
4464;SDS011;2245;48.136;13.428;2024-02-16T12:10:33;16.00;;;11.37;;
4464;SDS011;2245;48.136;13.428;2024-02-16T12:13:01;13.17;;;11.27;;
4464;SDS011;2245;48.136;13.428;2024-02-16T12:15:29;14.83;;;12.20;;
4464;SDS011;2245;48.136;13.428;2024-02-16T12:18:00;16.93;;;13.50;;
4464;SDS011;2245;48.136;13.428;2024-02-16T12:20:29;12.30;;;10.60;;
4464;SDS011;2245;48.136;13.428;2024-02-16T12:22:56;15.60;;;12.60;;
4464;SDS011;2245;48.136;13.428;2024-02-16T12:25:24;18.60;;;12.63;;
4464;SDS011;2245;48.136;13.428;2024-02-16T12:27:51;18.17;;;13.90;;
4464;SDS011;2245;48.136;13.428;2024-02-16T12:30:18;15.83;;;12.53;;
4464;SDS011;2245;48.136;13.428;2024-02-16T12:32:45;14.40;;;11.60;;
4464;SDS011;2245;48.136;13.428;2024-02-16T12:35:12;19.87;;;13.20;;
4464;SDS011;2245;48.136;13.428;2024-02-16T12:37:40;32.67;;;13.53;;
4464;SDS011;2245;48.136;13.428;2024-02-16T12:40:08;11.53;;;9.80;;
4464;SDS011;2245;48.136;13.428;2024-02-16T12:42:35;23.23;;;13.30;;
4464;SDS011;2245;48.136;13.428;2024-02-16T12:45:03;18.43;;;11.70;;
4464;SDS011;2245;48.136;13.428;2024-02-16T12:47:30;24.90;;;13.43;;
4464;SDS011;2245;48.136;13.428;2024-02-16T12:49:57;13.57;;;9.83;;
4464;SDS011;2245;48.136;13.428;2024-02-16T12:52:24;15.30;;;10.67;;
4464;SDS011;2245;48.136;13.428;2024-02-16T12:54:54;19.23;;;13.67;;
4464;SDS011;2245;48.136;13.428;2024-02-16T12:57:24;15.13;;;9.57;;
4464;SDS011;2245;48.136;13.428;2024-02-16T12:59:51;12.73;;;10.20;;
4464;SDS011;2245;48.136;13.428;2024-02-16T13:02:17;18.20;;;12.40;;
4464;SDS011;2245;48.136;13.428;2024-02-16T13:04:44;15.03;;;11.47;;
4464;SDS011;2245;48.136;13.428;2024-02-16T13:07:11;12.30;;;9.53;;
4464;SDS011;2245;48.136;13.428;2024-02-16T13:09:38;14.43;;;11.10;;
4464;SDS011;2245;48.136;13.428;2024-02-16T13:12:09;12.57;;;9.00;;
4464;SDS011;2245;48.136;13.428;2024-02-16T13:14:36;16.23;;;11.20;;
4464;SDS011;2245;48.136;13.428;2024-02-16T13:17:03;12.73;;;10.87;;
4464;SDS011;2245;48.136;13.428;2024-02-16T13:19:32;15.93;;;12.27;;
4464;SDS011;2245;48.136;13.428;2024-02-16T13:21:59;18.37;;;11.23;;
4464;SDS011;2245;48.136;13.428;2024-02-16T13:24:26;14.80;;;11.20;;
4464;SDS011;2245;48.136;13.428;2024-02-16T13:26:53;17.00;;;11.17;;
4464;SDS011;2245;48.136;13.428;2024-02-16T13:29:22;14.17;;;11.47;;
4464;SDS011;2245;48.136;13.428;2024-02-16T13:31:49;16.00;;;11.33;;
4464;SDS011;2245;48.136;13.428;2024-02-16T13:34:17;17.20;;;12.13;;
4464;SDS011;2245;48.136;13.428;2024-02-16T13:36:44;25.73;;;10.90;;
4464;SDS011;2245;48.136;13.428;2024-02-16T13:39:11;14.20;;;9.87;;
4464;SDS011;2245;48.136;13.428;2024-02-16T13:41:40;22.53;;;10.63;;
4464;SDS011;2245;48.136;13.428;2024-02-16T13:44:09;15.47;;;10.90;;
4464;SDS011;2245;48.136;13.428;2024-02-16T13:46:37;12.70;;;9.90;;
4464;SDS011;2245;48.136;13.428;2024-02-16T13:49:04;16.27;;;13.17;;
4464;SDS011;2245;48.136;13.428;2024-02-16T13:51:31;14.70;;;11.87;;
4464;SDS011;2245;48.136;13.428;2024-02-16T13:53:58;12.63;;;10.03;;
4464;SDS011;2245;48.136;13.428;2024-02-16T13:56:25;15.00;;;11.10;;
4464;SDS011;2245;48.136;13.428;2024-02-16T13:58:52;17.40;;;11.10;;
4464;SDS011;2245;48.136;13.428;2024-02-16T14:01:19;15.07;;;10.67;;
4464;SDS011;2245;48.136;13.428;2024-02-16T14:03:48;14.80;;;11.83;;
4464;SDS011;2245;48.136;13.428;2024-02-16T14:06:16;15.77;;;11.00;;
4464;SDS011;2245;48.136;13.428;2024-02-16T14:08:43;10.80;;;9.17;;
4464;SDS011;2245;48.136;13.428;2024-02-16T14:11:12;16.30;;;10.20;;
4464;SDS011;2245;48.136;13.428;2024-02-16T14:13:40;22.30;;;10.43;;
4464;SDS011;2245;48.136;13.428;2024-02-16T14:16:07;12.40;;;8.50;;
4464;SDS011;2245;48.136;13.428;2024-02-16T14:18:35;14.20;;;10.50;;
4464;SDS011;2245;48.136;13.428;2024-02-16T14:21:04;11.40;;;9.60;;
4464;SDS011;2245;48.136;13.428;2024-02-16T14:23:31;12.90;;;9.40;;
4464;SDS011;2245;48.136;13.428;2024-02-16T14:26:00;13.37;;;9.17;;
4464;SDS011;2245;48.136;13.428;2024-02-16T14:28:27;11.43;;;7.93;;
4464;SDS011;2245;48.136;13.428;2024-02-16T14:30:54;43.73;;;10.33;;
4464;SDS011;2245;48.136;13.428;2024-02-16T14:33:21;12.47;;;9.70;;
4464;SDS011;2245;48.136;13.428;2024-02-16T14:35:48;13.23;;;9.13;;
4464;SDS011;2245;48.136;13.428;2024-02-16T14:38:16;14.73;;;10.67;;
4464;SDS011;2245;48.136;13.428;2024-02-16T14:40:43;13.37;;;9.40;;
4464;SDS011;2245;48.136;13.428;2024-02-16T14:43:11;10.93;;;8.93;;
4464;SDS011;2245;48.136;13.428;2024-02-16T14:45:38;30.10;;;16.00;;
4464;SDS011;2245;48.136;13.428;2024-02-16T14:48:05;21.10;;;11.57;;
4464;SDS011;2245;48.136;13.428;2024-02-16T14:50:32;14.27;;;10.80;;
4464;SDS011;2245;48.136;13.428;2024-02-16T14:53:00;19.83;;;10.63;;